Warning: Javascript must be enabled to use all the features on this page!


Page Loading - Please Wait...

Click to hideNews Bulletins

USGS 04189260 Blanchard River at Ottawa OH

PROVISIONAL DATA SUBJECT TO REVISION

Click to hidestation-specific text
Station operated in cooperation with the Village of Ottawa and the National Streamflow Information Program.
 04189260 Blanchard River at Ottawa, OH
 LOCATION.--Lat 41°01'01", long 84°02'49", Putnam County, OH, Hydrologic 
     Unit 04100008, on right bank at downstream side of Oak Street, 200 ft. upstream 
     of B&O railroad bridge, 800 ft. upstream of SR65 bridge, 1,200 ft. southeast of 
     intersection of SR65 and US RT224 in the village of Ottawa, OH.
 DRAINAGE AREA.--628 mi2.
 PERIOD OF RECORD.--October 2009 to current water year.
Want to learn more about areas near this gage that are inundated during flooding? See the USGS flood-inundation mapper.

Boating safety tips
Available Parameters Available Period
All 2 Available Parameters for this site
  
00065 Gage height 2015-10-14  2016-02-11
00060 Discharge 2009-10-01  2016-02-11

Graph
Graph w/ stats
Graph w/o stats
Graph w/ (up to 3) parms
Table
Tab-separated
Days  (7)
 

  -- or --
Begin date
 

End date
 

Summary of all available data for this site
Instantaneous-data availability statement
Gage height, feet
TIMEFeb 4Feb 5Feb 6Feb 7Feb 8Feb 9Feb 10Feb 11
00:00 EST14.36P  14.09P  10.23P  8.21P  7.51P  7.24P  6.94P  6.60P  
00:30 EST14.44P  14.03P  10.15P  8.19P  7.50P  7.24P  6.93P  6.58P  
01:00 EST14.51P  13.98P  10.09P  8.17P  7.49P  7.22P  6.92P  6.57P  
01:30 EST14.57P  13.92P  10.03P  8.15P  7.48P  7.22P  6.92P  6.56P  
02:00 EST14.63P  13.86P  9.97P  8.13P  7.48P  7.22P  6.91P  6.55P  
02:30 EST14.68P  13.79P  9.90P  8.11P  7.47P  7.21P  6.89P  6.53P  
03:00 EST14.71P  13.73P  9.85P  8.09P  7.46P  7.21P  6.89P  6.51P  
03:30 EST14.75P  13.66P  9.78P  8.07P  7.45P  7.20P  6.87P  6.47P  
04:00 EST14.79P  13.59P  9.73P  8.05P  7.45P  7.20P  6.86P  6.43P  
04:30 EST14.80P  13.51P  9.67P  8.03P  7.44P  7.20P  6.85P  6.37P  
05:00 EST14.84P  13.44P  9.62P  8.01P  7.43P  7.19P  6.84P  6.31P  
05:30 EST14.86P  13.36P  9.57P  7.99P  7.43P  7.18P  6.84P  6.27P  
06:00 EST14.88P  13.28P  9.52P  7.97P  7.42P  7.19P  6.82P  6.25P  
06:30 EST14.89P  13.20P  9.46P  7.96P  7.42P  7.18P  6.82P  6.26P  
07:00 EST14.90P  13.12P  9.42P  7.95P  7.41P  7.18P  6.81P  6.27P  
07:30 EST14.91P  13.03P  9.36P  7.93P  7.41P  7.18P  6.80P  6.29P  
08:00 EST14.91P  12.94P  9.32P  7.91P  7.40P  7.18P  6.79P  6.32P  
08:30 EST14.92P  12.86P  9.27P  7.90P  7.39P  7.17P  6.77P  6.37P  
09:00 EST14.91P  12.77P  9.21P  7.88P  7.39P  7.18P  6.76P  6.42P  
09:30 EST14.92P  12.67P  9.18P  7.86P  7.39P  7.18P  6.75P  6.44P  
10:00 EST14.90P  12.58P  9.13P  7.85P  7.39P  7.17P  6.74P  6.38P  
10:30 EST14.90P  12.49P  9.08P  7.83P  7.38P  7.17P  6.74P  6.40P  
11:00 EST14.89P  12.40P  9.05P  7.82P  7.38P  7.16P  6.72P  6.39P  
11:30 EST14.88P  12.31P  9.01P  7.80P  7.37P  7.16P  6.71P  6.37P  
12:00 EST14.87P  12.21P  8.97P  7.79P  7.36P  7.15P  6.70P  6.37P  
12:30 EST14.85P  12.12P  8.93P  7.78P  7.36P  7.13P  6.69P  6.39P  
13:00 EST14.83P  12.02P  8.89P  7.76P  7.36P  7.12P  6.69P  6.42P  
13:30 EST14.81P  11.94P  8.86P  7.75P  7.35P  7.12P  6.68P  6.45P  
14:00 EST14.79P  11.85P  8.81P  7.74P  7.35P  7.10P  6.67P  6.49P  
14:30 EST14.77P  11.75P  8.78P  7.72P  7.34P  7.10P  6.66P  6.53P  
15:00 EST14.75P  11.67P  8.74P  7.71P  7.34P  7.09P  6.65P  6.56P  
15:30 EST14.72P  11.57P  8.70P  7.70P  7.33P  7.08P  6.65P  6.58P  
16:00 EST14.70P  11.49P  8.67P  7.69P  7.33P  7.07P  6.65P  6.59P  
16:30 EST14.67P  11.40P  8.64P  7.68P  7.32P  7.07P  6.63P  6.60P  
17:00 EST14.64P  11.31P  8.61P  7.67P  7.31P  7.05P  6.63P  6.59P  
17:30 EST14.61P  11.23P  8.57P  7.65P  7.31P  7.05P  6.63P  6.58P  
18:00 EST14.59P  11.15P  8.54P  7.64P  7.31P  7.04P  6.63P   
18:30 EST14.56P  11.06P  8.51P  7.62P  7.30P  7.03P  6.63P   
19:00 EST14.52P  10.98P  8.48P  7.61P  7.30P  7.02P  6.62P   
19:30 EST14.49P  10.89P  8.46P  7.61P  7.30P  7.01P  6.61P   
20:00 EST14.45P  10.81P  8.42P  7.59P  7.29P  7.01P  6.62P   
20:30 EST14.41P  10.74P  8.40P  7.58P  7.28P  7.00P  6.62P   
21:00 EST14.37P  10.66P  8.37P  7.57P  7.28P  6.99P  6.62P   
21:30 EST14.33P  10.58P  8.35P  7.56P  7.27P  6.98P  6.62P   
22:00 EST14.28P  10.51P  8.32P  7.54P  7.27P  6.97P  6.61P   
22:30 EST14.24P  10.43P  8.29P  7.54P  7.25P  6.97P  6.61P   
23:00 EST14.20P  10.36P  8.26P  7.53P  7.25P  6.95P  6.61P   
23:30 EST14.14P  10.30P  8.24P  7.51P  7.24P  6.95P  6.60P   
COUNT4848484848484836
MAX14.9214.0910.238.217.517.246.946.60
MIN14.1410.308.247.517.246.956.606.25

Explanation
  P  Provisional data subject to revision.